Time;durP1;ratioP1;P1;durP2;ratioP2;P2;SDS_P1;SDS_P2;PMS_P1;PMS_P2;Temp;Humidity;BMP_temperature;BMP_pressure;BME280_temperature;BME280_humidity;BME280_pressure;Samples;Min_cycle;Max_cycle;Signal;HPM_P1;HPM_P2
2022/09/25 00:02:12;;;;;;;9.20;3.00;;;18.20;65.70;;;;;;7373123;19;20090;-78
2022/09/25 00:04:41;;;;;;;12.05;2.70;;;18.10;65.70;;;;;;7393784;19;20048;-78
2022/09/25 00:07:10;;;;;;;10.38;3.00;;;18.10;66.00;;;;;;7372225;19;20011;-78
2022/09/25 00:09:39;;;;;;;8.48;2.92;;;18.10;66.30;;;;;;7374721;19;20023;-78
2022/09/25 00:12:07;;;;;;;7.88;2.15;;;18.00;65.80;;;;;;7375812;19;20459;-78
2022/09/25 00:14:36;;;;;;;6.95;3.65;;;18.00;66.20;;;;;;7373640;19;20007;-78
2022/09/25 00:17:07;;;;;;;7.90;3.78;;;18.00;66.30;;;;;;7372183;19;20111;-78
2022/09/25 00:19:49;;;;;;;14.77;3.85;;;17.90;66.10;;;;;;7394465;19;20576;-78
2022/09/25 00:22:18;;;;;;;11.57;4.15;;;17.90;66.60;;;;;;7373002;19;20021;-77
2022/09/25 00:24:47;;;;;;;14.25;4.00;;;18.00;66.80;;;;;;7372414;19;20039;-78
2022/09/25 00:27:17;;;;;;;13.90;3.83;;;18.00;66.80;;;;;;7372303;19;20011;-78
2022/09/25 00:29:46;;;;;;;10.32;4.40;;;18.00;66.20;;;;;;7371542;19;20393;-79
2022/09/25 00:32:17;;;;;;;10.90;4.15;;;18.00;66.00;;;;;;7373943;19;20018;-79
2022/09/25 00:34:46;;;;;;;10.95;4.55;;;17.80;66.30;;;;;;7382393;19;20392;-79
2022/09/25 00:37:15;;;;;;;11.82;4.47;;;17.80;66.30;;;;;;7394756;19;20040;-78
2022/09/25 00:39:43;;;;;;;8.88;4.88;;;17.80;66.60;;;;;;7370434;19;20018;-78
2022/09/25 00:42:14;;;;;;;14.95;5.35;;;17.90;66.90;;;;;;7372305;19;20022;-78
2022/09/25 00:44:58;;;;;;;7.87;4.67;;;17.80;66.60;;;;;;7370996;19;20006;-78
2022/09/25 00:47:47;;;;;;;13.25;4.22;;;17.90;66.80;;;;;;7371061;19;20015;-78
2022/09/25 00:50:36;;;;;;;12.18;4.55;;;18.00;66.70;;;;;;7373240;19;20445;-78
2022/09/25 00:53:10;;;;;;;10.25;3.88;;;17.80;66.30;;;;;;7373414;19;20032;-78
2022/09/25 00:55:41;;;;;;;10.15;3.95;;;17.90;66.70;;;;;;7393628;19;20082;-78
2022/09/25 00:58:10;;;;;;;;;;;18.00;66.60;;;;;;7370818;19;20113;-78
2022/09/25 01:00:39;;;;;;;9.95;4.30;;;18.00;66.30;;;;;;7371820;19;20361;-79
2022/09/25 01:03:11;;;;;;;10.88;3.50;;;18.00;66.30;;;;;;7374087;19;20011;-78
2022/09/25 01:05:45;;;;;;;9.73;3.50;;;17.90;66.40;;;;;;7375258;19;20664;-79
2022/09/25 01:08:17;;;;;;;18.67;3.05;;;18.00;66.60;;;;;;7375265;19;20026;-79
2022/09/25 01:10:48;;;;;;;11.88;3.53;;;18.00;66.50;;;;;;7385071;19;20051;-80
2022/09/25 01:13:18;;;;;;;6.72;2.60;;;18.00;66.50;;;;;;7391558;19;20025;-79
2022/09/25 01:15:58;;;;;;;8.77;3.67;;;17.90;66.50;;;;;;7370516;19;20038;-79
2022/09/25 01:18:46;;;;;;;9.50;3.80;;;18.00;66.50;;;;;;7372312;19;20064;-77
2022/09/25 01:21:34;;;;;;;9.75;3.70;;;18.00;66.40;;;;;;7378064;19;20014;-79
2022/09/25 01:24:25;;;;;;;15.07;3.50;;;18.00;66.30;;;;;;7377055;19;20302;-79
2022/09/25 01:27:27;;;;;;;14.95;3.53;;;18.00;66.50;;;;;;7374660;19;20473;-79
2022/09/25 01:30:07;;;;;;;11.50;3.72;;;17.90;66.50;;;;;;7375693;19;20560;-79
2022/09/25 01:32:42;;;;;;;9.38;4.10;;;17.80;66.70;;;;;;7374814;19;20037;-79
2022/09/25 01:35:18;;;;;;;14.77;4.20;;;17.80;66.80;;;;;;7374551;19;20018;-79
2022/09/25 01:37:55;;;;;;;18.95;4.82;;;17.80;66.90;;;;;;7381375;19;20120;-80
2022/09/25 01:40:32;;;;;;;12.40;4.38;;;17.70;67.00;;;;;;7397525;19;20014;-79
2022/09/25 01:43:15;;;;;;;14.40;4.97;;;17.70;67.50;;;;;;7375514;19;20017;-80
2022/09/25 01:45:52;;;;;;;14.60;4.82;;;17.70;67.40;;;;;;7373443;19;20018;-78
2022/09/25 01:48:26;;;;;;;10.02;4.63;;;17.70;67.30;;;;;;7373101;19;20019;-79
2022/09/25 01:50:59;;;;;;;14.85;4.80;;;17.80;67.40;;;;;;7375965;19;20036;-79
2022/09/25 01:53:35;;;;;;;15.40;4.72;;;17.80;67.20;;;;;;7373499;19;20010;-79
2022/09/25 01:56:09;;;;;;;9.27;4.28;;;17.90;67.20;;;;;;7370052;19;20022;-79
2022/09/25 01:58:45;;;;;;;12.52;4.95;;;18.00;67.20;;;;;;7391189;19;20032;-80
2022/09/25 02:01:22;;;;;;;11.82;5.15;;;18.00;66.90;;;;;;7369670;19;20011;-79
2022/09/25 02:03:56;;;;;;;16.83;5.38;;;18.00;66.60;;;;;;7368469;19;20098;-79
2022/09/25 02:06:26;;;;;;;13.40;4.53;;;18.00;67.00;;;;;;7368921;19;20579;-79
2022/09/25 02:09:01;;;;;;;10.98;5.00;;;18.00;66.80;;;;;;7367893;19;20438;-77
2022/09/25 02:11:36;;;;;;;17.50;5.13;;;18.00;66.60;;;;;;7369346;19;20011;-79
2022/09/25 02:14:09;;;;;;;13.18;4.60;;;18.00;66.50;;;;;;7367921;19;20158;-80
2022/09/25 02:16:44;;;;;;;13.52;4.85;;;17.90;66.50;;;;;;7390205;19;20017;-80
2022/09/25 02:22:03;;;;;;;11.38;4.38;;;17.70;67.10;;;;;;7368395;19;20015;-80
2022/09/25 02:24:39;;;;;;;21.95;4.80;;;17.60;67.70;;;;;;7370391;19;20776;-79
2022/09/25 02:27:07;;;;;;;13.52;5.50;;;17.60;68.50;;;;;;7371107;19;20092;-80
2022/09/25 02:29:37;;;;;;;7.68;4.53;;;17.50;67.70;;;;;;7367995;19;20014;-80
2022/09/25 02:32:11;;;;;;;11.00;5.18;;;17.60;68.10;;;;;;7368620;19;20133;-80
2022/09/25 02:34:41;;;;;;;11.20;4.95;;;17.60;67.80;;;;;;7389768;19;20031;-80
2022/09/25 02:37:12;;;;;;;15.25;5.60;;;17.70;67.90;;;;;;7370027;19;20584;-80
2022/09/25 02:39:43;;;;;;;12.55;5.05;;;17.60;68.00;;;;;;7369477;19;20022;-80
2022/09/25 02:42:22;;;;;;;15.15;4.88;;;17.70;68.00;;;;;;7370911;19;20606;-80
2022/09/25 02:45:09;;;;;;;11.52;4.85;;;17.70;67.90;;;;;;7366569;19;20462;-80
2022/09/25 02:47:46;;;;;;;8.80;5.07;;;17.70;67.70;;;;;;7365119;19;20021;-79
2022/09/25 02:50:22;;;;;;;13.02;5.10;;;17.80;67.70;;;;;;7366400;19;20014;-80
2022/09/25 02:53:00;;;;;;;13.02;5.07;;;17.80;67.70;;;;;;7366010;19;20019;-80
2022/09/25 02:55:39;;;;;;;14.73;5.45;;;17.80;67.60;;;;;;7388166;19;20031;-79
2022/09/25 02:58:13;;;;;;;13.57;5.50;;;17.70;67.70;;;;;;7366189;19;20010;-80
2022/09/25 03:00:45;;;;;;;12.35;5.07;;;17.70;67.80;;;;;;7366485;19;20053;-79
2022/09/25 03:03:20;;;;;;;11.55;4.68;;;17.70;67.90;;;;;;7366929;19;20010;-79
2022/09/25 03:05:50;;;;;;;12.50;4.97;;;17.70;67.80;;;;;;7366465;19;20082;-79
2022/09/25 03:11:04;;;;;;;11.18;4.90;;;17.70;67.70;;;;;;7368403;19;20026;-80
2022/09/25 03:13:35;;;;;;;12.27;4.63;;;17.70;67.70;;;;;;7386398;19;20011;-77
2022/09/25 03:16:06;;;;;;;12.13;4.43;;;17.70;67.70;;;;;;7365933;19;20062;-80
2022/09/25 03:18:38;;;;;;;14.07;5.57;;;17.60;67.80;;;;;;7368569;19;20035;-80
2022/09/25 03:21:06;;;;;;;;;;;17.60;67.90;;;;;;7368497;19;20011;-80
2022/09/25 03:23:35;;;;;;;9.65;4.70;;;17.60;68.30;;;;;;7366153;19;19960;-80
2022/09/25 03:26:04;;;;;;;9.55;4.63;;;17.50;68.10;;;;;;7371864;19;20018;-80
2022/09/25 03:28:33;;;;;;;12.35;5.00;;;17.50;68.00;;;;;;7397613;19;20018;-79
2022/09/25 03:31:05;;;;;;;12.90;5.20;;;17.40;68.40;;;;;;7375643;19;20085;-80
2022/09/25 03:33:38;;;;;;;;;;;17.40;68.70;;;;;;7377291;19;20665;-80
2022/09/25 03:36:10;;;;;;;11.90;5.22;;;17.40;68.90;;;;;;7371418;19;19915;-79
2022/09/25 03:38:40;;;;;;;12.43;5.05;;;17.20;69.20;;;;;;7371348;19;20039;-79
2022/09/25 03:41:10;;;;;;;15.73;5.45;;;17.30;69.50;;;;;;7371314;19;20035;-80
2022/09/25 03:43:41;;;;;;;13.90;5.90;;;17.30;69.30;;;;;;7395718;19;20018;-79
2022/09/25 03:46:12;;;;;;;15.67;5.13;;;17.40;69.40;;;;;;7372619;19;20027;-79
2022/09/25 03:48:43;;;;;;;14.30;5.53;;;17.50;69.30;;;;;;7373523;19;20018;-80
2022/09/25 03:51:13;;;;;;;15.75;5.07;;;17.30;69.10;;;;;;7373692;19;20653;-80
2022/09/25 03:53:42;;;;;;;13.65;5.20;;;17.40;69.40;;;;;;7372928;19;20007;-79
2022/09/25 03:56:14;;;;;;;14.68;5.68;;;17.50;69.60;;;;;;7372534;19;20010;-80
2022/09/25 03:58:43;;;;;;;16.40;5.72;;;17.30;69.20;;;;;;7398500;19;20067;-79
2022/09/25 04:01:12;;;;;;;20.00;5.78;;;17.40;69.20;;;;;;7377409;19;20014;-79
2022/09/25 04:03:46;;;;;;;19.10;5.65;;;17.50;69.30;;;;;;7379831;19;20014;-80
2022/09/25 04:06:17;;;;;;;18.95;7.05;;;17.50;69.30;;;;;;7377634;19;20025;-79
2022/09/25 04:08:47;;;;;;;15.70;7.00;;;17.40;69.00;;;;;;7375113;19;20017;-80
2022/09/25 04:11:16;;;;;;;16.17;7.03;;;17.40;69.40;;;;;;7376112;19;20022;-80
2022/09/25 04:13:45;;;;;;;13.48;6.30;;;17.40;69.40;;;;;;7393793;19;20460;-80
2022/09/25 04:16:16;;;;;;;15.82;6.45;;;17.40;69.40;;;;;;7394395;19;20466;-79
2022/09/25 04:18:49;;;;;;;16.80;6.65;;;17.40;69.10;;;;;;7372154;19;20018;-80
2022/09/25 04:21:18;;;;;;;13.00;6.90;;;17.30;69.30;;;;;;7378152;19;20011;-79
2022/09/25 04:24:47;;;;;;;15.70;6.60;;;17.30;69.30;;;;;;7373843;19;20536;-80
2022/09/25 04:26:37;;;;;;;17.77;7.20;;;17.10;69.20;;;;;;7375517;19;20017;-80
2022/09/25 04:29:06;;;;;;;13.45;6.47;;;17.00;69.70;;;;;;7372317;19;20087;-80
2022/09/25 04:31:35;;;;;;;14.68;6.30;;;17.10;70.00;;;;;;7394337;19;20019;-79
2022/09/25 04:34:03;;;;;;;13.10;6.53;;;17.30;69.90;;;;;;7371114;19;20014;-79
2022/09/25 04:36:32;;;;;;;12.63;6.28;;;17.20;69.10;;;;;;7368814;19;20010;-80
2022/09/25 04:39:01;;;;;;;13.88;6.05;;;17.10;69.10;;;;;;7370714;19;20047;-79
2022/09/25 04:41:30;;;;;;;15.07;5.97;;;17.20;69.40;;;;;;7372119;19;20031;-79
2022/09/25 04:43:58;;;;;;;17.45;5.93;;;17.10;69.10;;;;;;7371773;19;20037;-80
2022/09/25 04:46:27;;;;;;;16.23;6.35;;;17.20;69.10;;;;;;7393143;19;20479;-79
2022/09/25 04:48:56;;;;;;;15.55;5.75;;;17.00;68.80;;;;;;7369690;19;20014;-79
2022/09/25 04:51:28;;;;;;;12.15;5.45;;;17.20;69.10;;;;;;7370911;19;20365;-78
2022/09/25 04:53:58;;;;;;;14.45;6.18;;;17.30;69.30;;;;;;7368849;19;20015;-79
2022/09/25 04:56:27;;;;;;;19.27;7.45;;;17.30;68.80;;;;;;7370262;19;20014;-79
2022/09/25 04:58:58;;;;;;;15.95;7.05;;;17.30;68.80;;;;;;7371392;19;20070;-79
2022/09/25 05:01:29;;;;;;;20.23;7.40;;;17.40;68.50;;;;;;7393312;19;20028;-79
2022/09/25 05:03:59;;;;;;;17.75;7.20;;;17.20;68.80;;;;;;7371454;19;20130;-79
2022/09/25 05:06:31;;;;;;;17.90;7.90;;;17.20;68.90;;;;;;7372755;19;20438;-79
2022/09/25 05:09:00;;;;;;;22.88;8.07;;;17.30;69.00;;;;;;7369895;19;20027;-79
2022/09/25 05:11:28;;;;;;;21.85;7.85;;;17.30;69.50;;;;;;7369663;19;20464;-79
2022/09/25 05:13:57;;;;;;;16.95;8.20;;;17.30;68.60;;;;;;7369920;19;20031;-79
2022/09/25 05:16:27;;;;;;;21.88;8.15;;;17.30;68.80;;;;;;7391391;19;20010;-79
2022/09/25 05:18:56;;;;;;;15.75;8.15;;;17.30;68.60;;;;;;7370696;19;20045;-79
2022/09/25 05:21:25;;;;;;;17.10;8.88;;;17.30;68.60;;;;;;7370329;19;20380;-79
2022/09/25 05:23:57;;;;;;;21.67;9.07;;;17.30;68.60;;;;;;7371492;19;20573;-78
2022/09/25 05:26:26;;;;;;;18.73;8.93;;;17.30;68.60;;;;;;7372642;19;20014;-80
2022/09/25 05:28:55;;;;;;;21.48;9.88;;;17.40;68.70;;;;;;7370456;19;20035;-79
2022/09/25 05:31:24;;;;;;;18.08;9.40;;;17.40;68.60;;;;;;7393569;19;20022;-79
2022/09/25 05:33:52;;;;;;;19.55;9.38;;;17.30;68.40;;;;;;7373007;19;20018;-79
2022/09/25 05:36:22;;;;;;;21.83;10.00;;;17.40;68.40;;;;;;7374128;19;20024;-79
2022/09/25 05:38:55;;;;;;;24.02;10.90;;;17.40;68.00;;;;;;7371210;19;20018;-78
2022/09/25 05:41:26;;;;;;;19.05;10.52;;;17.40;68.00;;;;;;7371284;19;20018;-78
2022/09/25 05:43:56;;;;;;;22.73;10.43;;;17.40;67.90;;;;;;7373210;19;20018;-78
2022/09/25 05:46:25;;;;;;;24.70;10.10;;;17.40;68.70;;;;;;7391133;19;20025;-78
2022/09/25 05:48:53;;;;;;;22.17;11.45;;;17.40;68.00;;;;;;7368662;19;20122;-78
2022/09/25 05:51:22;;;;;;;20.15;10.70;;;17.40;68.00;;;;;;7370813;19;20021;-77
2022/09/25 05:53:51;;;;;;;19.92;9.98;;;17.40;67.80;;;;;;7371306;19;20089;-77
2022/09/25 05:56:23;;;;;;;21.95;10.43;;;17.40;68.00;;;;;;7370909;19;20031;-77
2022/09/25 05:58:57;;;;;;;18.88;9.95;;;17.40;68.00;;;;;;7370318;19;20017;-78
2022/09/25 06:01:26;;;;;;;28.95;10.52;;;17.40;67.80;;;;;;7391377;19;20031;-77
2022/09/25 06:03:55;;;;;;;28.30;10.65;;;17.40;67.60;;;;;;7369549;19;20086;-77
2022/09/25 06:06:24;;;;;;;22.15;10.55;;;17.40;67.50;;;;;;7370550;19;20389;-77
2022/09/25 06:08:55;;;;;;;17.73;9.35;;;17.10;67.60;;;;;;7372589;19;20035;-78
2022/09/25 06:11:23;;;;;;;27.90;10.60;;;17.10;68.00;;;;;;7377500;19;20380;-77
2022/09/25 06:13:56;;;;;;;21.20;10.35;;;17.00;68.10;;;;;;7371193;19;20036;-78
2022/09/25 06:16:25;;;;;;;19.98;10.05;;;16.90;68.40;;;;;;7393095;19;20455;-77
2022/09/25 06:18:54;;;;;;;16.20;9.43;;;16.90;68.80;;;;;;7370190;19;20018;-77
2022/09/25 06:21:23;;;;;;;21.55;10.35;;;16.90;68.80;;;;;;7369903;19;20014;-78
2022/09/25 06:23:54;;;;;;;19.50;11.00;;;16.90;68.60;;;;;;7372185;19;20364;-78
2022/09/25 06:26:24;;;;;;;20.95;10.73;;;16.80;68.70;;;;;;7377837;19;20018;-79
2022/09/25 06:28:55;;;;;;;21.45;10.75;;;16.70;68.80;;;;;;7370926;19;20086;-80
2022/09/25 06:31:24;;;;;;;;;;;16.90;68.90;;;;;;7393979;19;20011;-78
2022/09/25 06:33:53;;;;;;;22.30;10.02;;;17.00;68.70;;;;;;7370041;19;19906;-79
2022/09/25 06:36:24;;;;;;;24.17;9.23;;;17.00;68.50;;;;;;7371641;19;20031;-79
2022/09/25 06:38:56;;;;;;;23.10;9.88;;;17.10;68.50;;;;;;7374537;19;20449;-79
2022/09/25 06:41:25;;;;;;;18.88;9.48;;;17.00;68.30;;;;;;7372178;19;20018;-79
2022/09/25 06:43:57;;;;;;;22.02;9.27;;;16.80;68.30;;;;;;7371010;19;20106;-79
2022/09/25 06:46:25;;;;;;;;;;;16.50;68.90;;;;;;7391460;19;20375;-79
2022/09/25 06:48:56;;;;;;;19.30;9.02;;;16.70;69.30;;;;;;7366628;19;19914;-79
2022/09/25 06:51:26;;;;;;;18.02;9.32;;;16.80;68.80;;;;;;7369635;19;20011;-79
2022/09/25 06:53:55;;;;;;;21.13;8.77;;;16.80;68.60;;;;;;7367694;19;20011;-79
2022/09/25 06:56:24;;;;;;;23.27;8.82;;;16.90;68.80;;;;;;7369115;19;20027;-79
2022/09/25 06:58:56;;;;;;;16.27;8.75;;;17.00;68.00;;;;;;7374393;19;20027;-80
2022/09/25 07:01:25;;;;;;;22.73;8.55;;;17.00;68.00;;;;;;7396517;19;20027;-79
2022/09/25 07:03:51;;;;;;;20.13;8.27;;;17.10;68.00;;;;;;7375481;19;20413;-80
2022/09/25 07:06:22;;;;;;;25.25;8.38;;;17.20;68.00;;;;;;7376307;19;20018;-80
2022/09/25 07:08:55;;;;;;;25.08;6.90;;;17.20;67.30;;;;;;7376638;19;20023;-78
2022/09/25 07:11:26;;;;;;;19.80;7.18;;;17.20;66.90;;;;;;7379350;19;20007;-79
2022/09/25 07:14:00;;;;;;;16.23;7.72;;;17.10;67.00;;;;;;7378934;19;20018;-79
2022/09/25 07:16:31;;;;;;;18.40;6.80;;;17.10;66.90;;;;;;7399542;19;20014;-79
2022/09/25 07:19:02;;;;;;;15.13;6.50;;;17.20;67.90;;;;;;7377002;19;20149;-79
2022/09/25 07:21:31;;;;;;;18.88;7.18;;;17.20;66.90;;;;;;7376368;19;20017;-79
2022/09/25 07:24:00;;;;;;;15.88;6.15;;;17.30;67.10;;;;;;7377230;19;20014;-79
2022/09/25 07:26:33;;;;;;;17.80;7.03;;;17.30;66.70;;;;;;7376777;19;20143;-79
2022/09/25 07:29:06;;;;;;;17.67;6.28;;;17.40;66.20;;;;;;7375052;19;20025;-79
2022/09/25 07:31:37;;;;;;;22.00;6.38;;;17.30;66.00;;;;;;7397625;19;20047;-78
2022/09/25 07:34:07;;;;;;;17.92;5.53;;;17.30;66.10;;;;;;7375510;19;20074;-78
2022/09/25 07:36:37;;;;;;;19.17;6.13;;;17.30;66.10;;;;;;7373965;19;20019;-79
2022/09/25 07:39:09;;;;;;;15.50;5.93;;;17.20;65.90;;;;;;7376575;19;20122;-79
2022/09/25 07:41:38;;;;;;;19.40;5.75;;;17.30;66.40;;;;;;7374941;19;20043;-79
2022/09/25 07:44:09;;;;;;;57.33;20.55;;;17.40;66.30;;;;;;7374283;19;20012;-80
2022/09/25 07:46:41;;;;;;;;;;;17.40;65.80;;;;;;7396739;19;20018;-77
2022/09/25 07:49:10;;;;;;;16.20;6.70;;;17.40;65.30;;;;;;7371776;19;19918;-78
2022/09/25 07:51:39;;;;;;;15.23;5.40;;;17.10;65.40;;;;;;7374273;19;20627;-78
2022/09/25 07:54:08;;;;;;;15.10;5.35;;;17.20;65.80;;;;;;7373793;19;20077;-79
2022/09/25 07:56:37;;;;;;;16.67;4.47;;;17.10;65.40;;;;;;7375066;19;20010;-78
2022/09/25 07:59:09;;;;;;;15.88;3.63;;;17.20;65.80;;;;;;7376062;19;20072;-78
2022/09/25 08:01:37;;;;;;;;;;;17.30;65.90;;;;;;7397238;19;20018;-78
2022/09/25 08:04:06;;;;;;;14.80;4.28;;;17.30;64.90;;;;;;7376824;19;19926;-78
2022/09/25 08:06:37;;;;;;;13.45;3.25;;;17.40;65.20;;;;;;7375610;19;20023;-77
2022/09/25 08:09:06;;;;;;;16.88;4.50;;;17.40;65.10;;;;;;7375662;19;20320;-77
2022/09/25 08:11:36;;;;;;;12.40;3.50;;;17.40;64.40;;;;;;7372795;19;20070;-78
2022/09/25 08:14:04;;;;;;;13.48;3.40;;;17.40;64.70;;;;;;7374649;19;20023;-77
2022/09/25 08:16:36;;;;;;;15.57;3.60;;;17.50;64.30;;;;;;7394732;19;20018;-76
2022/09/25 08:19:05;;;;;;;10.95;3.28;;;17.40;64.00;;;;;;7373264;19;20011;-81
2022/09/25 08:21:36;;;;;;;17.52;5.55;;;17.40;64.30;;;;;;7371797;19;20020;-77
2022/09/25 08:24:05;;;;;;;8.43;3.28;;;17.50;64.30;;;;;;7374383;19;20014;-76
2022/09/25 08:26:34;;;;;;;14.02;3.03;;;17.50;63.70;;;;;;7372252;19;20015;-76
2022/09/25 08:29:03;;;;;;;9.18;2.60;;;17.60;63.40;;;;;;7373769;19;20463;-77
2022/09/25 08:31:33;;;;;;;5.75;2.28;;;17.60;63.60;;;;;;7392722;19;20463;-77
2022/09/25 08:34:05;;;;;;;12.77;2.88;;;17.70;63.10;;;;;;7375714;19;20533;-77
2022/09/25 08:36:34;;;;;;;8.20;2.40;;;17.60;63.00;;;;;;7380136;19;20010;-77
2022/09/25 08:39:03;;;;;;;14.15;2.55;;;17.70;63.10;;;;;;7379944;19;20014;-77
2022/09/25 08:41:35;;;;;;;8.55;2.20;;;17.80;63.00;;;;;;7375899;19;20691;-77
2022/09/25 08:44:08;;;;;;;12.15;2.28;;;17.70;62.20;;;;;;7372740;19;20403;-77
2022/09/25 08:49:29;;;;;;;7.10;1.80;;;17.50;61.00;;;;;;7376601;19;20019;-76
2022/09/25 08:52:04;;;;;;;11.00;2.28;;;17.40;61.60;;;;;;7374768;19;20018;-77
2022/09/25 08:54:35;;;;;;;13.82;2.88;;;17.50;61.90;;;;;;7369854;19;20066;-77
2022/09/25 08:57:14;;;;;;;12.75;3.05;;;17.60;61.80;;;;;;7370463;19;20010;-76
2022/09/25 08:59:46;;;;;;;7.28;2.10;;;17.50;61.20;;;;;;7371268;19;20033;-77
2022/09/25 09:02:18;;;;;;;14.50;2.13;;;17.70;61.30;;;;;;7371813;19;20015;-76
2022/09/25 09:04:53;;;;;;;13.52;1.90;;;17.70;61.20;;;;;;7369223;19;20085;-76
2022/09/25 09:07:26;;;;;;;14.60;1.98;;;17.80;60.50;;;;;;7393418;19;20025;-77
2022/09/25 09:09:59;;;;;;;6.47;1.75;;;17.90;60.40;;;;;;7367700;19;20077;-77
2022/09/25 09:12:35;;;;;;;9.02;1.63;;;17.70;59.70;;;;;;7373739;19;20055;-77
2022/09/25 09:15:24;;;;;;;6.10;1.58;;;17.80;59.90;;;;;;7370788;19;20018;-76
2022/09/25 09:17:54;;;;;;;7.97;1.70;;;17.90;59.30;;;;;;7374027;19;20039;-76
2022/09/25 09:20:32;;;;;;;6.50;1.48;;;17.90;59.30;;;;;;7371655;19;20019;-76
2022/09/25 09:23:02;;;;;;;6.28;1.40;;;17.80;58.80;;;;;;7368994;19;20555;-76
2022/09/25 09:25:39;;;;;;;7.97;2.22;;;17.90;58.70;;;;;;7392370;19;20015;-77
2022/09/25 09:28:27;;;;;;;4.90;1.30;;;17.90;58.90;;;;;;7370663;19;20078;-77
2022/09/25 09:31:07;;;;;;;8.45;1.77;;;17.90;58.20;;;;;;7370556;19;20015;-77
2022/09/25 09:33:46;;;;;;;11.57;3.65;;;18.00;58.90;;;;;;7369959;19;20022;-77
2022/09/25 09:36:27;;;;;;;6.80;1.98;;;18.10;58.70;;;;;;7369923;19;20007;-76
2022/09/25 09:39:03;;;;;;;13.38;3.42;;;18.10;58.60;;;;;;7370725;19;20014;-76
2022/09/25 09:41:49;;;;;;;6.88;2.28;;;18.20;57.90;;;;;;7371188;19;20021;-76
2022/09/25 09:44:30;;;;;;;11.65;1.42;;;18.10;56.90;;;;;;7370372;19;20073;-76
2022/09/25 09:47:07;;;;;;;10.02;2.60;;;18.10;57.10;;;;;;7371769;19;20308;-76
2022/09/25 09:49:44;;;;;;;12.30;2.60;;;18.20;57.30;;;;;;7389559;19;20011;-77
2022/09/25 09:52:22;;;;;;;11.48;2.40;;;18.30;57.30;;;;;;7369246;19;20037;-77
2022/09/25 09:54:55;;;;;;;8.70;1.67;;;18.30;57.70;;;;;;7369143;19;20015;-76
2022/09/25 09:57:27;;;;;;;7.55;1.30;;;18.40;57.20;;;;;;7368626;19;20014;-77
2022/09/25 09:59:59;;;;;;;4.90;1.33;;;18.30;56.50;;;;;;7367304;19;20392;-75
2022/09/25 10:02:35;;;;;;;5.40;1.30;;;18.20;55.40;;;;;;7367986;19;20572;-77
2022/09/25 10:05:09;;;;;;;2.45;1.05;;;18.20;56.70;;;;;;7367385;19;20022;-79
2022/09/25 10:07:44;;;;;;;15.45;1.75;;;18.30;56.80;;;;;;7387688;19;20015;-77
2022/09/25 10:10:16;;;;;;;6.07;1.85;;;18.30;56.70;;;;;;7366385;19;20349;-77
2022/09/25 10:12:49;;;;;;;4.50;1.50;;;18.40;56.40;;;;;;7369446;19;20070;-77
2022/09/25 10:18:48;;;;;;;7.22;1.38;;;18.40;55.90;;;;;;7369654;19;20025;-81
2022/09/25 10:21:20;;;;;;;8.23;1.30;;;18.40;54.90;;;;;;7367286;19;20003;-76
2022/09/25 10:23:54;;;;;;;4.72;1.00;;;18.40;54.50;;;;;;7368847;19;20019;-77
2022/09/25 10:26:29;;;;;;;6.30;1.27;;;18.30;55.00;;;;;;7368659;19;20018;-77
2022/09/25 10:28:59;;;;;;;5.80;1.38;;;18.30;54.00;;;;;;7367495;19;20090;-77
2022/09/25 10:31:31;;;;;;;4.78;0.90;;;18.30;53.80;;;;;;7391222;19;20433;-77
2022/09/25 10:34:07;;;;;;;3.97;1.15;;;18.30;52.90;;;;;;7366612;19;20027;-77
2022/09/25 10:36:42;;;;;;;4.22;0.82;;;18.40;53.40;;;;;;7368371;19;20021;-78
2022/09/25 10:39:31;;;;;;;4.38;1.00;;;18.50;53.10;;;;;;7366860;19;20086;-78
2022/09/25 10:42:07;;;;;;;6.10;1.10;;;18.50;53.30;;;;;;7369317;19;20027;-79
2022/09/25 10:44:37;;;;;;;7.43;1.33;;;18.60;53.80;;;;;;7366415;19;20015;-79
2022/09/25 10:50:17;;;;;;;8.15;1.25;;;18.40;53.70;;;;;;7365625;19;20018;-79
2022/09/25 10:52:51;;;;;;;13.82;1.80;;;18.40;54.00;;;;;;7378566;19;20077;-80
2022/09/25 10:55:30;;;;;;;3.72;1.13;;;18.40;53.70;;;;;;7386424;19;20018;-79
2022/09/25 10:58:11;;;;;;;8.18;1.17;;;18.40;53.70;;;;;;7371231;19;20017;-78
2022/09/25 11:00:45;;;;;;;3.17;1.20;;;18.30;52.90;;;;;;7376257;19;20031;-79
2022/09/25 11:03:21;;;;;;;4.93;1.20;;;18.50;53.10;;;;;;7377303;19;20011;-79
2022/09/25 11:05:55;;;;;;;7.93;1.27;;;18.70;52.60;;;;;;7376222;19;20463;-79
2022/09/25 11:08:27;;;;;;;9.18;1.23;;;18.80;52.60;;;;;;7375363;19;20039;-78
2022/09/25 11:11:01;;;;;;;4.45;1.27;;;18.90;52.20;;;;;;7368078;19;20326;-78
2022/09/25 11:13:35;;;;;;;5.07;1.33;;;19.00;52.30;;;;;;7390285;19;20014;-78
2022/09/25 11:16:09;;;;;;;5.68;1.20;;;19.10;51.70;;;;;;7371829;19;20018;-79
2022/09/25 11:18:42;;;;;;;3.92;1.23;;;19.00;51.60;;;;;;7373698;19;20030;-78
2022/09/25 11:21:22;;;;;;;7.40;1.23;;;19.00;50.80;;;;;;7371703;19;20014;-78
2022/09/25 11:24:08;;;;;;;8.83;1.30;;;19.00;50.90;;;;;;7368742;19;20035;-79
2022/09/25 11:26:48;;;;;;;3.97;1.23;;;19.00;50.40;;;;;;7369036;19;20276;-79
2022/09/25 11:29:23;;;;;;;4.05;1.10;;;18.90;50.50;;;;;;7368785;19;20010;-78
2022/09/25 11:31:58;;;;;;;4.75;0.70;;;19.10;50.70;;;;;;7370219;19;20022;-79
2022/09/25 11:34:41;;;;;;;4.97;1.30;;;19.00;49.50;;;;;;7386856;19;20442;-79
2022/09/25 11:37:20;;;;;;;4.63;0.95;;;19.00;49.80;;;;;;7371101;19;20082;-78
2022/09/25 11:42:45;;;;;;;3.60;0.93;;;19.20;49.50;;;;;;7375059;19;20019;-78
2022/09/25 11:45:25;;;;;;;4.90;0.60;;;19.40;49.50;;;;;;7374205;19;20763;-81
2022/09/25 11:48:01;;;;;;;5.70;1.10;;;19.30;48.80;;;;;;7369796;19;20023;-79
2022/09/25 11:50:39;;;;;;;3.67;0.95;;;19.40;49.00;;;;;;7371846;19;20035;-79
2022/09/25 11:53:22;;;;;;;5.82;0.98;;;19.50;47.50;;;;;;7375466;19;20031;-78
2022/09/25 11:56:09;;;;;;;4.18;0.80;;;19.60;48.30;;;;;;7375581;19;20021;-79
2022/09/25 11:58:52;;;;;;;3.03;0.85;;;19.70;48.20;;;;;;7394093;19;20010;-79
2022/09/25 12:01:36;;;;;;;4.68;1.35;;;19.80;48.40;;;;;;7372374;19;20015;-80
2022/09/25 12:04:48;;;;;;;2.55;0.90;;;19.90;48.20;;;;;;7372809;19;20018;-78
2022/09/25 12:07:39;;;;;;;3.35;0.80;;;19.90;46.90;;;;;;7370970;19;20040;-79
2022/09/25 12:10:21;;;;;;;7.53;1.02;;;19.90;46.70;;;;;;7370453;19;20018;-78
2022/09/25 12:12:58;;;;;;;4.80;0.93;;;19.90;47.30;;;;;;7371161;19;20015;-80
2022/09/25 12:15:43;;;;;;;3.92;1.20;;;20.00;47.60;;;;;;7370970;19;20014;-79
2022/09/25 12:18:28;;;;;;;2.85;0.85;;;20.10;48.10;;;;;;7379697;19;20019;-80
2022/09/25 12:21:02;;;;;;;3.17;1.00;;;20.00;47.30;;;;;;7377197;19;20054;-80
2022/09/25 12:23:34;;;;;;;4.53;1.00;;;20.00;47.70;;;;;;7371131;19;20021;-79
2022/09/25 12:26:28;;;;;;;8.18;1.00;;;20.00;47.90;;;;;;7369011;19;20559;-79
2022/09/25 12:29:11;;;;;;;3.30;1.30;;;19.90;47.50;;;;;;7369720;19;20637;-79
2022/09/25 12:31:57;;;;;;;4.28;1.27;;;19.80;47.80;;;;;;7392766;19;20018;-79
2022/09/25 12:34:42;;;;;;;2.45;0.60;;;19.90;47.70;;;;;;7370543;19;20070;-79
2022/09/25 12:37:21;;;;;;;3.53;0.80;;;20.00;47.50;;;;;;7371938;19;20038;-80
2022/09/25 12:39:53;;;;;;;1.58;0.70;;;20.00;47.20;;;;;;7370499;19;20097;-80
2022/09/25 12:42:26;;;;;;;3.28;0.95;;;20.20;47.70;;;;;;7368913;19;20018;-80
2022/09/25 12:45:02;;;;;;;1.67;0.70;;;20.40;47.60;;;;;;7370570;19;20035;-80
2022/09/25 12:47:39;;;;;;;2.45;0.77;;;20.50;47.10;;;;;;7369205;19;20027;-80
2022/09/25 12:50:13;;;;;;;2.10;0.93;;;20.50;46.80;;;;;;7370538;19;20018;-79
2022/09/25 12:52:48;;;;;;;1.92;0.75;;;20.60;46.50;;;;;;7391470;19;20027;-80
2022/09/25 12:55:20;;;;;;;3.38;0.80;;;20.50;46.40;;;;;;7375705;19;20024;-79
2022/09/25 12:57:54;;;;;;;4.65;1.00;;;20.70;46.80;;;;;;7376415;19;20032;-79
2022/09/25 13:00:27;;;;;;;5.40;0.95;;;20.80;46.80;;;;;;7372546;19;20022;-79
2022/09/25 13:03:05;;;;;;;2.20;0.70;;;20.90;47.10;;;;;;7367805;19;20031;-78
2022/09/25 13:05:36;;;;;;;4.35;0.90;;;21.10;46.70;;;;;;7369479;19;20368;-78
2022/09/25 13:08:13;;;;;;;3.88;0.80;;;21.10;45.40;;;;;;7367393;19;20020;-79
2022/09/25 13:10:46;;;;;;;4.00;0.70;;;21.20;45.70;;;;;;7397756;19;20014;-78
2022/09/25 13:13:19;;;;;;;2.05;0.60;;;21.10;44.80;;;;;;7364824;19;20014;-79
2022/09/25 13:15:52;;;;;;;2.85;0.80;;;21.10;44.40;;;;;;7369145;19;20015;-79
2022/09/25 13:18:26;;;;;;;2.97;0.63;;;20.80;45.60;;;;;;7370284;19;20049;-79
2022/09/25 13:20:56;;;;;;;3.05;0.60;;;20.70;44.60;;;;;;7369789;19;20010;-79
2022/09/25 13:23:33;;;;;;;2.38;0.70;;;20.70;45.30;;;;;;7369754;19;20014;-78
2022/09/25 13:26:10;;;;;;;2.05;0.68;;;20.80;45.10;;;;;;7369416;19;20018;-80
2022/09/25 13:28:42;;;;;;;2.53;0.90;;;20.90;44.90;;;;;;7390936;19;20098;-79
2022/09/25 13:31:14;;;;;;;1.67;0.73;;;21.10;44.90;;;;;;7371315;19;20581;-79
2022/09/25 13:33:54;;;;;;;2.10;0.60;;;21.30;43.80;;;;;;7380702;19;20070;-79